YPFT weather

Cooma/Polo Flat (Unlic) Airport
New South Wales, Australia

Public forecast

Using degrees Celsius for public forecast. Weather courtesy of forecast.io.

METAR (pilot weather report)

Closest report is Cooma Snowy Mountains Airport, 9.5 nm (17.6 km) WSW. Retrieved 2019/03/27 00:00 UTC (58 minutes ago):

YCOM 270000Z AUTO 05010KT 9999 // NCD 12/06 Q1025

TAF (pilot weather forecast)

Forecast is more than 6 hours old.

Closest forecast is Canberra International Airport, 55.5 nm (102.7 km) N. Retrieved 2019/03/26 18:00 UTC (7 hours ago):

TAF YSCB 261701Z 2618/2718 15004KT CAVOK FM270000 06008KT CAVOK FM270400 06010KT 9999 SCT040 FM271300 VRB03KT CAVOK